Time;durP1;ratioP1;P1;durP2;ratioP2;P2;SDS_P1;SDS_P2;PMS_P1;PMS_P2;Temp;Humidity;BMP_temperature;BMP_pressure;BME280_temperature;BME280_humidity;BME280_pressure;Samples;Min_cycle;Max_cycle;Signal;HPM_P1;HPM_P2
2022/09/13 00:01:56;;;;;;;14.77;8.73;;;16.60;71.60;;;;;;4131785;28;20431;-84
2022/09/13 00:03:57;;;;;;;14.05;9.30;;;16.50;71.30;;;;;;4116780;28;20058;-85
2022/09/13 00:06:05;;;;;;;14.57;8.27;;;16.50;71.70;;;;;;4132987;28;20107;-84
2022/09/13 00:08:06;;;;;;;12.80;8.40;;;16.50;71.90;;;;;;4132652;28;20509;-84
2022/09/13 00:10:07;;;;;;;15.45;8.50;;;16.40;71.80;;;;;;4134217;28;20034;-84
2022/09/13 00:12:08;;;;;;;17.85;9.43;;;16.40;72.00;;;;;;4130834;28;20039;-84
2022/09/13 00:14:09;;;;;;;16.38;10.02;;;16.40;73.50;;;;;;4135847;28;20065;-84
2022/09/13 00:16:15;;;;;;;17.35;10.25;;;16.40;72.80;;;;;;4132472;28;20085;-85
2022/09/13 00:18:17;;;;;;;16.42;9.55;;;16.30;73.00;;;;;;4137394;28;20042;-84
2022/09/13 00:20:18;;;;;;;14.35;8.50;;;16.30;73.20;;;;;;4134876;28;20081;-84
2022/09/13 00:22:19;;;;;;;17.55;10.15;;;16.40;73.20;;;;;;4128416;28;20097;-84
2022/09/13 00:24:22;;;;;;;17.80;10.40;;;16.30;73.20;;;;;;4131439;28;20036;-84
2022/09/13 00:26:25;;;;;;;16.80;9.63;;;16.30;73.30;;;;;;4136329;28;20035;-84
2022/09/13 00:28:26;;;;;;;17.95;9.30;;;16.40;73.80;;;;;;4135847;28;20053;-84
2022/09/13 00:30:27;;;;;;;18.08;10.32;;;16.30;73.70;;;;;;4139320;28;20038;-85
2022/09/13 00:32:32;;;;;;;15.63;9.35;;;16.30;74.00;;;;;;4138109;28;20117;-84
2022/09/13 00:34:33;;;;;;;17.73;10.98;;;16.40;74.20;;;;;;4136750;28;20026;-85
2022/09/13 00:36:33;;;;;;;16.67;9.48;;;16.30;74.50;;;;;;4139914;28;20045;-83
2022/09/13 00:38:38;;;;;;;17.35;9.70;;;16.30;74.50;;;;;;4133517;28;20079;-85
2022/09/13 00:40:39;;;;;;;14.77;9.68;;;16.30;74.60;;;;;;4135363;28;20018;-85
2022/09/13 00:42:39;;;;;;;20.17;10.32;;;16.30;74.60;;;;;;4134733;28;20036;-84
2022/09/13 00:45:01;;;;;;;15.93;9.38;;;16.30;74.70;;;;;;4134218;28;20026;-82
2022/09/13 00:47:02;;;;;;;15.55;10.18;;;16.30;74.80;;;;;;4133345;28;20037;-83
2022/09/13 00:49:30;;;;;;;18.00;10.98;;;16.20;74.90;;;;;;4132064;28;20113;-83
2022/09/13 00:51:31;;;;;;;18.30;10.57;;;16.30;75.80;;;;;;4133542;28;20030;-83
2022/09/13 00:53:38;;;;;;;17.25;11.20;;;16.30;75.10;;;;;;4133542;28;20037;-83
2022/09/13 00:55:42;;;;;;;18.92;10.73;;;16.20;75.30;;;;;;4132806;28;20088;-83
2022/09/13 00:57:43;;;;;;;23.42;12.57;;;16.20;75.40;;;;;;4134728;28;20057;-84
2022/09/13 00:59:52;;;;;;;17.65;10.10;;;16.20;75.50;;;;;;4133409;28;20045;-83
2022/09/13 01:01:55;;;;;;;18.30;10.73;;;16.20;75.50;;;;;;4135409;28;20723;-84
2022/09/13 01:03:55;;;;;;;20.00;10.75;;;16.20;75.40;;;;;;4130466;28;20027;-84
2022/09/13 01:06:05;;;;;;;19.17;10.55;;;16.20;75.50;;;;;;4135153;28;20042;-84
2022/09/13 01:08:13;;;;;;;19.58;11.25;;;16.20;75.90;;;;;;4134480;28;20034;-84
2022/09/13 01:10:14;;;;;;;20.73;12.23;;;16.20;75.80;;;;;;4134136;28;20023;-83
2022/09/13 01:12:24;;;;;;;21.77;12.45;;;16.20;76.00;;;;;;4132345;28;20076;-84
2022/09/13 01:14:26;;;;;;;21.70;11.95;;;16.20;76.30;;;;;;4137344;28;20027;-83
2022/09/13 01:16:26;;;;;;;21.38;13.43;;;16.20;76.10;;;;;;4135702;28;20591;-84
2022/09/13 01:18:27;;;;;;;23.80;13.73;;;16.20;76.20;;;;;;4132634;28;20030;-84
2022/09/13 01:20:50;;;;;;;25.58;13.57;;;16.30;76.70;;;;;;4136485;28;20038;-83
2022/09/13 01:23:14;;;;;;;23.52;12.45;;;16.20;76.80;;;;;;4133270;28;20031;-85
2022/09/13 01:25:33;;;;;;;26.55;12.73;;;16.20;76.70;;;;;;4130443;28;20042;-84
2022/09/13 01:27:37;;;;;;;26.05;13.65;;;16.20;76.60;;;;;;4131569;28;20613;-85
2022/09/13 01:30:17;;;;;;;23.98;13.30;;;16.20;76.80;;;;;;4133567;28;20034;-85
2022/09/13 01:32:35;;;;;;;19.42;11.88;;;16.20;77.50;;;;;;4121569;28;20031;-84
2022/09/13 01:34:46;;;;;;;22.60;13.30;;;16.20;76.80;;;;;;4132885;28;20085;-85
2022/09/13 01:36:57;;;;;;;25.00;13.57;;;16.20;76.90;;;;;;4133940;28;20034;-85
2022/09/13 01:39:05;;;;;;;22.80;13.80;;;16.20;77.60;;;;;;4137605;28;20090;-84
2022/09/13 01:41:33;;;;;;;22.38;13.50;;;16.20;76.90;;;;;;4134906;28;20052;-85
2022/09/13 01:44:01;;;;;;;27.55;14.18;;;16.20;77.10;;;;;;4133516;28;20053;-84
2022/09/13 01:46:14;;;;;;;22.70;13.07;;;16.10;76.90;;;;;;4130927;28;20026;-83
2022/09/13 01:48:40;;;;;;;25.98;13.07;;;16.20;77.20;;;;;;4119037;28;20035;-84
2022/09/13 01:50:54;;;;;;;25.42;14.65;;;16.10;77.10;;;;;;4130648;28;20038;-85
2022/09/13 01:53:01;;;;;;;30.42;16.23;;;16.10;77.30;;;;;;4131916;28;20113;-84
2022/09/13 01:55:16;;;;;;;29.95;14.95;;;16.10;77.10;;;;;;4134686;28;20062;-85
2022/09/13 01:57:24;;;;;;;27.63;14.00;;;16.10;77.30;;;;;;4130066;28;21204;-84
2022/09/13 01:59:50;;;;;;;25.63;15.13;;;16.10;77.10;;;;;;4132698;28;20049;-84
2022/09/13 02:01:55;;;;;;;29.48;15.40;;;16.10;77.60;;;;;;4115974;28;20491;-84
2022/09/13 02:04:12;;;;;;;28.80;16.20;;;16.20;77.50;;;;;;4125537;28;20088;-85
2022/09/13 02:06:23;;;;;;;26.08;15.52;;;16.10;77.60;;;;;;4144010;28;20539;-84
2022/09/13 02:08:36;;;;;;;24.27;14.80;;;16.20;77.70;;;;;;4129933;28;20030;-84
2022/09/13 02:10:45;;;;;;;28.58;15.65;;;16.10;77.80;;;;;;4130494;28;20035;-84
2022/09/13 02:12:48;;;;;;;26.70;15.90;;;16.10;78.50;;;;;;4124914;28;20404;-85
2022/09/13 02:15:16;;;;;;;25.92;15.68;;;16.10;77.80;;;;;;4130978;28;20436;-85
2022/09/13 02:17:27;;;;;;;24.15;15.63;;;16.10;78.50;;;;;;4129696;28;20026;-83
2022/09/13 02:19:55;;;;;;;23.17;13.48;;;16.10;78.10;;;;;;4133519;28;20026;-84
2022/09/13 02:21:58;;;;;;;25.83;14.35;;;16.10;78.40;;;;;;4125554;28;20029;-84
2022/09/13 02:24:04;;;;;;;23.35;13.50;;;16.10;78.20;;;;;;4130324;28;20026;-85
2022/09/13 02:26:07;;;;;;;26.38;14.13;;;16.10;78.20;;;;;;4132175;28;20026;-84
2022/09/13 02:28:11;;;;;;;20.80;12.70;;;16.10;78.10;;;;;;4131855;28;20374;-86
2022/09/13 02:30:13;;;;;;;21.98;12.65;;;16.10;78.30;;;;;;4132812;28;20027;-84
2022/09/13 02:32:24;;;;;;;19.92;11.90;;;16.10;78.30;;;;;;4130879;28;20044;-85
2022/09/13 02:34:30;;;;;;;19.58;11.90;;;16.10;78.40;;;;;;4132984;28;20018;-83
2022/09/13 02:36:35;;;;;;;19.20;11.43;;;16.10;78.30;;;;;;4129609;28;20093;-85
2022/09/13 02:38:48;;;;;;;21.13;10.63;;;16.10;78.60;;;;;;4126062;28;20129;-84
2022/09/13 02:40:56;;;;;;;15.77;8.87;;;16.10;79.00;;;;;;4129061;28;20030;-83
2022/09/13 02:43:03;;;;;;;15.07;9.32;;;16.10;78.70;;;;;;4132653;28;20058;-84
2022/09/13 02:45:05;;;;;;;15.40;9.15;;;16.10;78.90;;;;;;4127727;28;20098;-85
2022/09/13 02:47:10;;;;;;;13.70;8.88;;;16.00;79.00;;;;;;4129878;28;20037;-85
2022/09/13 02:49:23;;;;;;;13.05;8.05;;;16.10;79.10;;;;;;4129638;28;20034;-84
2022/09/13 02:51:46;;;;;;;11.85;8.10;;;16.10;79.20;;;;;;4128135;28;20046;-85
2022/09/13 02:53:54;;;;;;;11.40;7.07;;;16.10;80.20;;;;;;4128211;28;20031;-84
2022/09/13 02:56:22;;;;;;;12.18;8.05;;;16.10;79.30;;;;;;4129295;28;20308;-84
2022/09/13 02:58:45;;;;;;;11.15;7.50;;;16.10;80.00;;;;;;4125695;28;20034;-84
2022/09/13 03:00:46;;;;;;;13.52;7.97;;;16.00;80.00;;;;;;4132932;28;20033;-85
2022/09/13 03:02:49;;;;;;;15.43;7.88;;;16.10;79.70;;;;;;4128853;28;20022;-84
2022/09/13 03:04:50;;;;;;;13.23;7.47;;;16.20;79.80;;;;;;4143677;28;20104;-84
2022/09/13 03:06:51;;;;;;;14.82;7.07;;;16.10;79.80;;;;;;4128266;28;20034;-85
2022/09/13 03:08:57;;;;;;;11.85;6.50;;;16.10;79.80;;;;;;4132146;28;20137;-84
2022/09/13 03:11:07;;;;;;;9.35;5.47;;;16.20;79.90;;;;;;4130675;28;20083;-85
2022/09/13 03:13:23;;;;;;;12.45;5.40;;;16.10;79.90;;;;;;4130454;28;20030;-85
2022/09/13 03:15:53;;;;;;;10.25;5.15;;;16.10;80.10;;;;;;4131837;28;20099;-84
2022/09/13 03:18:41;;;;;;;11.57;4.22;;;16.10;80.30;;;;;;4131185;28;20037;-85
2022/09/13 03:20:58;;;;;;;10.93;2.97;;;16.10;80.80;;;;;;4112765;28;20042;-84
2022/09/13 03:23:33;;;;;;;9.60;1.65;;;16.10;80.20;;;;;;4122422;28;20102;-86
2022/09/13 03:25:52;;;;;;;6.25;1.60;;;16.20;81.00;;;;;;4131432;28;20026;-84
2022/09/13 03:28:00;;;;;;;8.48;1.85;;;16.20;80.00;;;;;;4128588;28;20733;-85
2022/09/13 03:30:11;;;;;;;10.68;1.77;;;16.20;79.90;;;;;;4125714;28;20022;-85
2022/09/13 03:32:33;;;;;;;8.07;1.65;;;16.20;79.80;;;;;;4130110;28;20106;-84
2022/09/13 03:34:47;;;;;;;12.90;1.90;;;16.20;79.70;;;;;;4128842;28;20034;-85
2022/09/13 03:36:55;;;;;;;10.18;1.30;;;16.30;79.60;;;;;;4131621;28;20022;-84
2022/09/13 03:39:08;;;;;;;9.10;1.40;;;16.30;79.50;;;;;;4127764;28;20041;-85
2022/09/13 03:41:21;;;;;;;9.93;1.38;;;16.20;79.40;;;;;;4127730;28;20028;-85
2022/09/13 03:43:38;;;;;;;9.05;1.30;;;16.20;79.40;;;;;;4127662;28;20515;-84
2022/09/13 03:45:48;;;;;;;11.77;1.40;;;16.20;79.30;;;;;;4125234;28;20027;-84
2022/09/13 03:47:50;;;;;;;15.70;1.65;;;16.10;79.20;;;;;;4126775;28;20140;-85
2022/09/13 03:49:54;;;;;;;7.35;1.52;;;16.10;79.10;;;;;;4128468;28;20117;-85
2022/09/13 03:51:55;;;;;;;10.45;1.35;;;16.10;79.20;;;;;;4140984;28;20093;-84
2022/09/13 03:54:01;;;;;;;8.57;1.33;;;16.10;79.10;;;;;;4130523;28;20034;-85
2022/09/13 03:56:15;;;;;;;9.05;1.38;;;16.10;79.00;;;;;;4145687;28;20089;-83
2022/09/13 03:58:19;;;;;;;6.05;1.13;;;16.10;79.00;;;;;;4130011;28;20108;-84
2022/09/13 04:00:20;;;;;;;10.70;1.42;;;16.10;78.90;;;;;;4132226;28;20181;-85
2022/09/13 04:02:23;;;;;;;11.32;1.30;;;16.00;78.90;;;;;;4131407;28;20014;-83
2022/09/13 04:04:25;;;;;;;10.95;1.35;;;16.00;78.80;;;;;;4134945;28;20476;-85
2022/09/13 04:06:26;;;;;;;7.93;1.77;;;16.00;78.80;;;;;;4129331;28;20034;-85
2022/09/13 04:08:26;;;;;;;11.20;1.48;;;16.00;78.70;;;;;;4136842;28;20034;-84
2022/09/13 04:10:30;;;;;;;11.18;1.15;;;16.00;78.60;;;;;;4134130;28;20057;-84
2022/09/13 04:12:31;;;;;;;5.72;1.05;;;16.00;78.50;;;;;;4134765;28;20290;-83
2022/09/13 04:14:32;;;;;;;8.45;1.23;;;15.90;78.40;;;;;;4134151;28;20046;-85
2022/09/13 04:16:33;;;;;;;7.40;1.30;;;15.90;78.30;;;;;;4147591;28;20044;-85
2022/09/13 04:18:33;;;;;;;10.38;1.05;;;16.00;79.10;;;;;;4133626;28;20058;-84
2022/09/13 04:20:34;;;;;;;11.18;1.35;;;15.80;78.00;;;;;;4131925;28;20097;-84
2022/09/13 04:22:35;;;;;;;6.03;0.98;;;15.90;78.00;;;;;;4131841;28;20103;-84
2022/09/13 04:24:37;;;;;;;13.07;1.17;;;15.80;78.00;;;;;;4131157;28;20023;-82
2022/09/13 04:26:38;;;;;;;9.45;1.52;;;15.80;78.00;;;;;;4134704;28;20019;-84
2022/09/13 04:28:39;;;;;;;7.60;1.30;;;15.70;77.90;;;;;;4118660;28;20069;-84
2022/09/13 04:30:43;;;;;;;6.60;0.90;;;15.80;77.90;;;;;;4131587;28;20554;-84
2022/09/13 04:32:44;;;;;;;8.23;1.02;;;15.70;77.90;;;;;;4134931;28;20493;-83
2022/09/13 04:34:46;;;;;;;7.70;1.13;;;15.70;77.70;;;;;;4135797;28;20036;-85
2022/09/13 04:36:52;;;;;;;5.78;1.15;;;15.60;77.60;;;;;;4124089;28;20034;-85
2022/09/13 04:38:52;;;;;;;7.47;1.05;;;15.60;77.70;;;;;;4126715;28;20678;-84
2022/09/13 04:40:54;;;;;;;9.52;1.60;;;15.60;77.60;;;;;;4128456;28;20038;-84
2022/09/13 04:43:08;;;;;;;12.27;1.40;;;15.60;77.50;;;;;;4130426;28;20037;-83
2022/09/13 04:45:09;;;;;;;;;;;15.50;77.50;;;;;;4130542;28;20469;-83
2022/09/13 04:47:12;;;;;;;13.48;1.20;;;15.50;77.80;;;;;;4132167;28;19924;-85
2022/09/13 04:49:14;;;;;;;;;;;15.60;77.30;;;;;;4132979;28;20084;-83
2022/09/13 04:51:16;;;;;;;8.95;1.02;;;15.50;77.80;;;;;;4127289;28;19914;-85
2022/09/13 04:53:17;;;;;;;11.90;1.40;;;15.50;77.10;;;;;;4129083;28;20089;-86
2022/09/13 04:55:18;;;;;;;9.10;1.38;;;15.50;77.10;;;;;;4128961;28;20101;-84
2022/09/13 04:57:21;;;;;;;6.88;0.95;;;15.40;77.10;;;;;;4129358;28;20026;-85
2022/09/13 04:59:21;;;;;;;9.45;1.35;;;15.40;77.20;;;;;;4124936;28;20765;-82
2022/09/13 05:01:23;;;;;;;15.05;1.45;;;15.40;77.20;;;;;;4129037;28;20122;-83
2022/09/13 05:03:24;;;;;;;10.68;1.25;;;15.30;77.20;;;;;;4130235;28;20033;-83
2022/09/13 05:05:27;;;;;;;15.20;2.78;;;15.30;77.10;;;;;;4130439;28;20026;-83
2022/09/13 05:07:28;;;;;;;7.40;1.17;;;15.30;77.10;;;;;;4129425;28;20053;-83
2022/09/13 05:09:28;;;;;;;10.82;1.55;;;15.30;77.10;;;;;;4130535;28;20042;-85
2022/09/13 05:11:38;;;;;;;7.07;0.57;;;15.20;76.90;;;;;;4128982;28;20038;-84
2022/09/13 05:13:53;;;;;;;12.23;1.50;;;15.20;77.00;;;;;;4138816;28;20461;-83
2022/09/13 05:15:56;;;;;;;14.23;1.65;;;15.20;76.90;;;;;;4130115;28;20097;-83
2022/09/13 05:17:56;;;;;;;7.28;1.00;;;15.20;76.90;;;;;;4130459;28;20580;-84
2022/09/13 05:19:57;;;;;;;12.88;1.23;;;15.20;76.80;;;;;;4130393;28;20014;-85
2022/09/13 05:21:58;;;;;;;9.60;1.17;;;15.10;76.70;;;;;;4126971;28;20030;-83
2022/09/13 05:23:59;;;;;;;5.53;0.77;;;15.10;76.70;;;;;;4126977;28;20029;-83
2022/09/13 05:26:02;;;;;;;10.18;1.60;;;15.10;76.70;;;;;;4124634;28;20031;-84
2022/09/13 05:28:03;;;;;;;;;;;15.00;76.70;;;;;;4128134;28;20529;-84
2022/09/13 05:30:04;;;;;;;9.02;1.20;;;15.00;76.90;;;;;;4125907;28;19913;-83
2022/09/13 05:32:04;;;;;;;10.23;1.10;;;15.00;76.50;;;;;;4128300;28;20030;-83
2022/09/13 05:34:11;;;;;;;5.20;1.13;;;15.10;76.60;;;;;;4129532;28;20120;-84
2022/09/13 05:36:12;;;;;;;9.82;1.10;;;15.00;76.70;;;;;;4128965;28;20097;-84
2022/09/13 05:38:20;;;;;;;10.48;1.65;;;15.00;77.50;;;;;;4128913;28;20026;-83
2022/09/13 05:40:21;;;;;;;7.65;0.95;;;14.90;76.80;;;;;;4125714;28;20029;-84
2022/09/13 05:42:22;;;;;;;9.27;1.15;;;15.00;76.90;;;;;;4125646;28;20031;-83
2022/09/13 05:44:22;;;;;;;9.95;1.08;;;14.90;76.90;;;;;;4127381;28;20054;-82
2022/09/13 05:46:23;;;;;;;10.10;1.27;;;14.90;76.90;;;;;;4125016;28;20254;-84
2022/09/13 05:48:24;;;;;;;8.65;1.27;;;14.90;77.00;;;;;;4127758;28;20659;-84
2022/09/13 05:50:25;;;;;;;10.20;1.27;;;14.90;76.90;;;;;;4136914;28;20599;-83
2022/09/13 05:52:25;;;;;;;11.55;1.40;;;14.90;77.10;;;;;;4125523;28;20104;-83
2022/09/13 05:54:26;;;;;;;11.00;1.27;;;15.00;77.30;;;;;;4124107;28;20062;-84
2022/09/13 05:56:29;;;;;;;14.65;2.53;;;15.00;77.30;;;;;;4139666;28;20052;-82
2022/09/13 05:58:29;;;;;;;12.10;1.50;;;14.90;77.20;;;;;;4124262;28;20455;-84
2022/09/13 06:00:31;;;;;;;7.55;1.52;;;15.00;77.30;;;;;;4140567;28;20045;-84
2022/09/13 06:02:31;;;;;;;6.15;0.95;;;15.00;77.20;;;;;;4124905;28;20728;-84
2022/09/13 06:04:34;;;;;;;9.13;1.20;;;15.10;77.10;;;;;;4143708;28;20105;-84
2022/09/13 06:06:40;;;;;;;4.90;0.80;;;15.00;76.90;;;;;;4124774;28;20065;-85
2022/09/13 06:08:41;;;;;;;11.23;1.60;;;15.00;76.90;;;;;;4125608;28;20096;-84
2022/09/13 06:10:42;;;;;;;8.38;1.13;;;15.00;76.60;;;;;;4127251;28;20425;-84
2022/09/13 06:12:43;;;;;;;7.57;1.10;;;15.00;76.60;;;;;;4125925;28;20109;-85
2022/09/13 06:14:43;;;;;;;11.90;1.05;;;15.10;76.50;;;;;;4122583;28;20039;-84
2022/09/13 06:16:47;;;;;;;7.80;1.63;;;15.10;76.50;;;;;;4124637;28;20120;-85
2022/09/13 06:18:48;;;;;;;7.25;1.20;;;15.20;76.40;;;;;;4125996;28;20532;-83
2022/09/13 06:20:53;;;;;;;8.32;1.40;;;15.00;76.30;;;;;;4129244;28;20023;-84
2022/09/13 06:22:53;;;;;;;11.63;1.45;;;15.10;76.20;;;;;;4123477;28;20439;-84
2022/09/13 06:24:54;;;;;;;11.38;1.23;;;15.20;76.10;;;;;;4120224;28;20023;-84
2022/09/13 06:26:54;;;;;;;13.60;1.20;;;15.10;76.00;;;;;;4120479;28;20037;-84
2022/09/13 06:28:57;;;;;;;7.22;1.63;;;15.10;75.60;;;;;;4124359;28;20041;-84
2022/09/13 06:31:30;;;;;;;12.27;1.52;;;15.20;75.50;;;;;;4126449;28;20496;-84
2022/09/13 06:33:56;;;;;;;8.82;3.15;;;15.10;75.20;;;;;;4095302;28;20038;-83
2022/09/13 06:36:21;;;;;;;122.72;44.90;;;15.10;75.00;;;;;;4081999;28;20031;-83
2022/09/13 06:38:51;;;;;;;23.17;10.60;;;15.00;74.60;;;;;;4086291;28;20624;-84
2022/09/13 06:41:05;;;;;;;14.27;5.05;;;15.00;74.40;;;;;;4097240;28;20343;-84
2022/09/13 06:43:05;;;;;;;8.52;2.30;;;15.00;74.10;;;;;;4100218;28;20028;-84
2022/09/13 06:45:06;;;;;;;9.50;1.70;;;15.00;74.10;;;;;;4098052;28;20110;-85
2022/09/13 06:47:07;;;;;;;10.52;1.38;;;15.00;74.10;;;;;;4095504;28;20070;-84
2022/09/13 06:49:09;;;;;;;14.35;1.55;;;15.00;74.00;;;;;;4080117;29;20028;-84
2022/09/13 06:51:17;;;;;;;7.28;1.50;;;15.00;74.00;;;;;;4099711;28;20102;-84
2022/09/13 06:53:17;;;;;;;10.40;1.67;;;15.00;73.90;;;;;;4104056;28;20043;-85
2022/09/13 06:55:18;;;;;;;10.88;1.27;;;14.90;74.00;;;;;;4096665;28;20051;-83
2022/09/13 06:57:19;;;;;;;10.93;1.00;;;15.00;74.00;;;;;;4097226;28;20067;-84
2022/09/13 06:59:20;;;;;;;12.02;1.25;;;15.00;73.90;;;;;;4098539;28;20036;-83
2022/09/13 07:01:23;;;;;;;9.50;0.93;;;15.10;74.00;;;;;;4088696;29;20023;-84
2022/09/13 07:03:26;;;;;;;7.63;0.90;;;15.10;73.90;;;;;;4104753;28;20032;-83
2022/09/13 07:05:26;;;;;;;7.50;1.00;;;15.10;73.90;;;;;;4096963;28;21077;-84
2022/09/13 07:07:27;;;;;;;8.48;1.08;;;15.30;73.90;;;;;;4100078;28;20039;-84
2022/09/13 07:09:54;;;;;;;11.45;1.23;;;15.20;73.60;;;;;;4115821;28;20093;-84
2022/09/13 07:12:13;;;;;;;4.78;0.90;;;15.30;73.50;;;;;;4128519;28;20096;-83
2022/09/13 07:14:17;;;;;;;6.47;1.17;;;15.30;73.70;;;;;;4125921;28;20035;-83
2022/09/13 07:16:19;;;;;;;11.10;1.77;;;15.40;73.70;;;;;;4126801;28;20769;-83
2022/09/13 07:18:19;;;;;;;7.40;0.85;;;15.40;73.30;;;;;;4128896;28;20078;-83
2022/09/13 07:20:22;;;;;;;8.52;1.10;;;15.50;73.20;;;;;;4127560;28;20034;-84
2022/09/13 07:22:25;;;;;;;11.50;1.10;;;15.50;72.80;;;;;;4126928;28;20386;-83
2022/09/13 07:24:26;;;;;;;6.57;1.10;;;15.50;73.40;;;;;;4126035;28;20033;-84
2022/09/13 07:26:27;;;;;;;9.57;1.65;;;15.60;72.30;;;;;;4116021;28;20026;-82
2022/09/13 07:28:29;;;;;;;10.52;1.27;;;15.60;71.90;;;;;;4130104;28;20034;-83
2022/09/13 07:30:30;;;;;;;9.85;0.98;;;15.60;71.60;;;;;;4132509;28;20552;-83
2022/09/13 07:32:31;;;;;;;7.13;0.85;;;15.70;71.50;;;;;;4115619;28;20038;-82
2022/09/13 07:34:32;;;;;;;7.60;0.90;;;15.80;71.20;;;;;;4130090;28;20035;-82
2022/09/13 07:36:34;;;;;;;13.73;1.30;;;15.70;70.90;;;;;;4129952;28;20054;-82
2022/09/13 07:38:36;;;;;;;13.30;1.40;;;15.90;70.50;;;;;;4129280;28;20666;-83
2022/09/13 07:40:37;;;;;;;4.68;0.98;;;15.80;70.00;;;;;;4127775;28;20042;-82
2022/09/13 07:42:38;;;;;;;9.50;1.10;;;15.90;70.00;;;;;;4126886;28;20088;-83
2022/09/13 07:44:38;;;;;;;5.32;1.15;;;15.90;69.50;;;;;;4127962;28;20069;-83
2022/09/13 07:46:42;;;;;;;8.82;1.42;;;15.90;69.60;;;;;;4127108;28;20068;-84
2022/09/13 07:48:45;;;;;;;7.95;1.17;;;16.00;69.70;;;;;;4129562;28;20089;-83
2022/09/13 07:51:05;;;;;;;10.43;1.20;;;16.10;69.50;;;;;;4130850;28;20025;-83
2022/09/13 07:53:07;;;;;;;10.13;1.30;;;16.20;68.90;;;;;;4127675;28;20027;-84
2022/09/13 07:55:08;;;;;;;5.35;1.00;;;16.10;68.80;;;;;;4131408;28;20594;-83
2022/09/13 07:57:08;;;;;;;8.43;1.42;;;16.20;68.60;;;;;;4131487;28;20035;-83
2022/09/13 07:59:15;;;;;;;10.05;1.20;;;16.30;68.00;;;;;;4131057;28;20022;-83
2022/09/13 08:01:19;;;;;;;8.20;0.98;;;16.30;67.80;;;;;;4127606;28;20110;-83
2022/09/13 08:03:20;;;;;;;8.07;1.30;;;16.30;67.10;;;;;;4132397;28;20034;-83
2022/09/13 08:05:20;;;;;;;12.13;1.73;;;16.40;66.50;;;;;;4130408;28;20034;-83
2022/09/13 08:07:21;;;;;;;8.48;1.13;;;16.40;66.60;;;;;;4132635;28;20093;-84
2022/09/13 08:09:22;;;;;;;8.40;1.20;;;16.40;66.20;;;;;;4130308;28;20139;-82
2022/09/13 08:11:29;;;;;;;7.57;0.98;;;16.50;65.70;;;;;;4131559;28;20582;-83
2022/09/13 08:13:31;;;;;;;11.05;1.52;;;16.50;65.60;;;;;;4131890;28;20039;-83
2022/09/13 08:15:32;;;;;;;4.70;0.90;;;16.50;65.60;;;;;;4145175;28;20018;-82
2022/09/13 08:17:33;;;;;;;10.30;1.40;;;16.70;65.70;;;;;;4129538;28;20058;-83
2022/09/13 08:19:33;;;;;;;10.27;1.20;;;16.70;65.40;;;;;;4131568;28;20030;-83
2022/09/13 08:21:36;;;;;;;6.78;1.38;;;16.70;65.90;;;;;;4129947;28;20026;-84
2022/09/13 08:23:37;;;;;;;11.35;1.00;;;16.80;64.90;;;;;;4127072;28;20471;-82
2022/09/13 08:25:38;;;;;;;7.95;1.13;;;16.90;65.00;;;;;;4130051;28;20030;-83
2022/09/13 08:27:39;;;;;;;8.07;1.33;;;16.90;64.10;;;;;;4145576;28;20363;-83
2022/09/13 08:29:39;;;;;;;7.22;1.27;;;16.80;63.60;;;;;;4135729;28;20045;-83
2022/09/13 08:31:41;;;;;;;9.77;1.20;;;16.90;63.10;;;;;;4135604;28;20496;-84
2022/09/13 08:33:44;;;;;;;7.82;1.00;;;16.90;63.30;;;;;;4132857;28;20073;-83
2022/09/13 08:35:51;;;;;;;11.35;1.20;;;17.00;63.40;;;;;;4129248;28;20073;-84
2022/09/13 08:37:52;;;;;;;6.47;1.20;;;17.00;62.60;;;;;;4130158;28;20031;-83
2022/09/13 08:39:53;;;;;;;8.00;1.40;;;17.00;62.60;;;;;;4132278;28;20031;-84
2022/09/13 08:42:10;;;;;;;8.70;1.10;;;17.10;61.70;;;;;;4132855;28;20030;-84
2022/09/13 08:44:32;;;;;;;6.15;1.48;;;17.10;60.80;;;;;;4131826;28;20444;-84
2022/09/13 08:46:36;;;;;;;9.80;1.83;;;17.20;59.70;;;;;;4133765;28;20014;-82
2022/09/13 08:48:44;;;;;;;9.50;1.25;;;17.10;59.90;;;;;;4131555;28;20110;-84
2022/09/13 08:50:47;;;;;;;15.57;1.38;;;17.20;60.00;;;;;;4134665;28;20102;-83
2022/09/13 08:53:02;;;;;;;7.95;1.33;;;17.20;59.80;;;;;;4130923;28;20030;-83
2022/09/13 08:55:30;;;;;;;9.23;1.38;;;17.20;59.60;;;;;;4134027;28;20060;-84
2022/09/13 08:57:52;;;;;;;14.05;1.20;;;17.30;59.40;;;;;;4132228;28;20034;-84
2022/09/13 09:00:21;;;;;;;7.30;1.25;;;17.30;59.00;;;;;;4131111;28;20054;-84
2022/09/13 09:02:50;;;;;;;9.07;1.60;;;17.40;58.50;;;;;;4129963;28;20748;-83
2022/09/13 09:05:01;;;;;;;6.82;1.10;;;17.40;58.60;;;;;;4128737;28;20483;-85
2022/09/13 09:07:16;;;;;;;17.38;1.65;;;17.50;58.70;;;;;;4132245;28;20104;-85
2022/09/13 09:09:20;;;;;;;8.50;1.15;;;17.40;57.00;;;;;;4141870;28;20033;-85
2022/09/13 09:11:31;;;;;;;8.88;1.33;;;17.50;57.00;;;;;;4131852;28;20046;-85
2022/09/13 09:13:39;;;;;;;5.18;1.10;;;17.50;57.10;;;;;;4143148;28;20022;-85
2022/09/13 09:15:47;;;;;;;8.60;1.10;;;17.60;57.20;;;;;;4126913;28;20477;-84
2022/09/13 09:17:55;;;;;;;13.50;1.65;;;17.60;56.60;;;;;;4129920;28;20511;-84
2022/09/13 09:20:08;;;;;;;8.98;1.73;;;17.60;56.30;;;;;;4143814;28;20034;-86
2022/09/13 09:22:20;;;;;;;12.63;1.30;;;17.60;55.70;;;;;;4143849;28;20026;-84
2022/09/13 09:24:24;;;;;;;8.23;1.23;;;17.70;55.90;;;;;;4133339;28;21992;-85
2022/09/13 09:26:28;;;;;;;9.35;1.58;;;17.70;55.50;;;;;;4132965;28;20049;-85
2022/09/13 09:28:30;;;;;;;10.32;1.17;;;17.80;55.70;;;;;;4115216;28;20031;-85
2022/09/13 09:30:44;;;;;;;6.93;1.05;;;17.80;55.70;;;;;;4144658;28;20057;-84
2022/09/13 09:33:06;;;;;;;5.55;0.90;;;17.80;55.00;;;;;;4131179;28;20035;-85
2022/09/13 09:35:53;;;;;;;9.38;1.60;;;17.80;54.60;;;;;;4146338;28;20045;-86
2022/09/13 09:38:30;;;;;;;7.60;1.13;;;17.90;54.00;;;;;;4144146;28;20567;-84
2022/09/13 09:40:33;;;;;;;5.57;1.00;;;18.00;54.30;;;;;;4133280;28;20049;-84
2022/09/13 09:42:44;;;;;;;;;;;17.90;53.50;;;;;;4132590;28;20050;-86
2022/09/13 09:44:52;;;;;;;5.28;1.00;;;18.00;53.40;;;;;;4130480;28;19921;-83
2022/09/13 09:47:03;;;;;;;5.20;0.88;;;18.00;53.00;;;;;;4130961;28;20081;-83
2022/09/13 09:51:36;;;;;;;9.13;1.10;;;18.10;53.60;;;;;;4121679;28;20026;-84
2022/09/13 09:53:46;;;;;;;8.48;1.00;;;18.10;53.90;;;;;;4130452;28;20030;-83
2022/09/13 09:55:52;;;;;;;9.27;1.42;;;18.10;53.90;;;;;;4115013;28;20026;-83
2022/09/13 09:58:05;;;;;;;9.18;1.00;;;18.10;53.50;;;;;;4127604;28;20042;-83
2022/09/13 10:00:11;;;;;;;7.65;1.15;;;18.20;53.20;;;;;;4127230;28;20030;-85
2022/09/13 10:02:20;;;;;;;7.00;1.05;;;18.20;53.70;;;;;;4127268;28;20030;-84
2022/09/13 10:04:21;;;;;;;9.18;1.10;;;18.20;52.90;;;;;;4129405;28;20117;-85
2022/09/13 10:06:26;;;;;;;5.75;1.10;;;18.20;52.90;;;;;;4129238;28;20027;-83
2022/09/13 10:08:33;;;;;;;7.57;1.10;;;18.20;52.60;;;;;;4129834;28;20128;-84
2022/09/13 10:10:42;;;;;;;6.05;1.00;;;18.20;52.40;;;;;;4129931;28;20031;-84
2022/09/13 10:12:48;;;;;;;11.07;1.15;;;18.20;52.60;;;;;;4130031;28;20104;-84
2022/09/13 10:14:50;;;;;;;8.18;1.50;;;18.20;52.70;;;;;;4129224;28;20030;-84
2022/09/13 10:17:05;;;;;;;4.72;1.00;;;18.20;52.70;;;;;;4131755;28;20038;-85
2022/09/13 10:19:25;;;;;;;6.90;1.02;;;18.10;52.80;;;;;;4129402;28;20118;-84
2022/09/13 10:21:26;;;;;;;15.40;1.13;;;18.10;52.50;;;;;;4131630;28;20509;-84
2022/09/13 10:23:28;;;;;;;7.95;1.05;;;18.10;52.90;;;;;;4135858;28;20030;-85
2022/09/13 10:25:30;;;;;;;8.48;1.45;;;18.10;52.90;;;;;;4131530;28;20046;-83
2022/09/13 10:27:41;;;;;;;9.45;1.65;;;18.10;53.30;;;;;;4129907;28;20061;-84
2022/09/13 10:29:49;;;;;;;12.48;1.67;;;18.00;53.30;;;;;;4128915;28;20098;-84
2022/09/13 10:31:57;;;;;;;10.38;0.98;;;18.00;53.80;;;;;;4129774;28;20045;-83
2022/09/13 10:34:11;;;;;;;5.80;1.10;;;18.00;54.10;;;;;;4134662;28;20026;-84
2022/09/13 10:36:15;;;;;;;10.65;1.20;;;18.00;53.80;;;;;;4141082;28;20052;-84
2022/09/13 10:38:29;;;;;;;8.13;1.33;;;18.00;53.90;;;;;;4128470;28;20174;-83
2022/09/13 10:40:38;;;;;;;16.15;1.10;;;17.90;54.10;;;;;;4129917;28;20037;-85
2022/09/13 10:42:38;;;;;;;7.13;1.90;;;17.90;54.10;;;;;;4130807;28;20608;-84
2022/09/13 10:44:44;;;;;;;9.77;1.35;;;17.80;54.60;;;;;;4129839;28;20031;-84
2022/09/13 10:46:48;;;;;;;9.48;1.02;;;17.80;54.00;;;;;;4128956;28;20093;-85
2022/09/13 10:48:55;;;;;;;5.78;1.00;;;17.80;54.40;;;;;;4131189;28;20105;-85
2022/09/13 10:51:25;;;;;;;5.72;0.93;;;17.80;54.80;;;;;;4134628;28;20030;-84
2022/09/13 10:53:32;;;;;;;8.68;1.17;;;17.70;55.30;;;;;;4128362;28;20034;-83
2022/09/13 10:55:39;;;;;;;10.27;1.20;;;17.70;55.70;;;;;;4131548;28;20089;-85
2022/09/13 10:57:40;;;;;;;8.18;1.10;;;17.70;55.80;;;;;;4141958;28;20442;-83
2022/09/13 10:59:41;;;;;;;10.30;1.60;;;17.70;56.00;;;;;;4132435;28;20045;-83